createdAt,value
2018-05-13T00:00:03.653Z,17.38
2018-05-13T00:02:29.420Z,17.29
2018-05-13T00:04:55.209Z,17.25
2018-05-13T00:07:20.946Z,17.24
2018-05-13T00:09:46.728Z,17.26
2018-05-13T00:12:12.499Z,17.23
2018-05-13T00:14:38.261Z,17.23
2018-05-13T00:17:04.024Z,17.25
2018-05-13T00:19:29.814Z,17.24
2018-05-13T00:21:55.788Z,17.21
2018-05-13T00:24:21.555Z,17.20
2018-05-13T00:26:47.437Z,17.15
2018-05-13T00:29:13.166Z,17.16
2018-05-13T00:31:38.934Z,17.18
2018-05-13T00:34:04.714Z,17.16
2018-05-13T00:36:30.462Z,17.17
2018-05-13T00:38:56.479Z,17.13
2018-05-13T00:41:22.272Z,17.08
2018-05-13T00:43:48.084Z,17.01
2018-05-13T00:46:13.834Z,17.02
2018-05-13T00:48:39.636Z,17.01
2018-05-13T00:51:05.370Z,16.98
2018-05-13T00:53:31.107Z,17.00
2018-05-13T00:55:56.971Z,16.98
2018-05-13T00:58:22.931Z,17.00
2018-05-13T01:00:48.723Z,17.01
2018-05-13T01:03:14.491Z,17.06
2018-05-13T01:05:40.259Z,17.16
2018-05-13T01:08:06.031Z,17.15
2018-05-13T01:10:31.842Z,17.16
2018-05-13T01:12:57.605Z,17.20
2018-05-13T01:15:23.354Z,17.22
2018-05-13T01:17:49.156Z,17.24
2018-05-13T01:20:14.897Z,17.25
2018-05-13T01:22:40.651Z,17.20
2018-05-13T01:25:06.440Z,17.20
2018-05-13T01:27:32.206Z,17.14
2018-05-13T01:29:57.963Z,17.10
2018-05-13T01:32:23.724Z,17.05
2018-05-13T01:34:49.499Z,17.04
2018-05-13T01:37:15.239Z,16.97
2018-05-13T01:39:40.994Z,16.94
2018-05-13T01:42:06.756Z,16.96
2018-05-13T01:44:32.534Z,16.98
2018-05-13T01:46:58.356Z,16.98
2018-05-13T01:49:24.124Z,16.90
2018-05-13T01:51:50.025Z,16.83
2018-05-13T01:54:15.795Z,16.82
2018-05-13T01:56:41.551Z,16.75
2018-05-13T01:59:07.307Z,16.72
2018-05-13T02:01:33.076Z,16.69
2018-05-13T02:03:58.824Z,16.67
2018-05-13T02:06:24.559Z,16.65
2018-05-13T02:08:50.289Z,16.65
2018-05-13T02:11:16.035Z,16.65
2018-05-13T02:13:48.811Z,16.65
2018-05-13T02:16:14.587Z,16.62
2018-05-13T02:18:40.363Z,16.64
2018-05-13T02:21:06.163Z,16.67
2018-05-13T02:23:31.911Z,16.67
2018-05-13T02:25:57.882Z,16.76
2018-05-13T02:28:23.703Z,16.80
2018-05-13T02:30:49.597Z,16.81
2018-05-13T02:33:15.361Z,16.83
2018-05-13T02:35:41.124Z,16.84
2018-05-13T02:38:06.867Z,16.83
2018-05-13T02:40:32.646Z,16.87
2018-05-13T02:42:58.630Z,16.88
2018-05-13T02:45:24.444Z,16.89
2018-05-13T02:47:50.208Z,16.89
2018-05-13T02:50:15.964Z,16.85
2018-05-13T02:52:41.737Z,16.83
2018-05-13T02:55:07.524Z,16.77
2018-05-13T02:57:33.293Z,16.74
2018-05-13T02:59:59.057Z,16.73
2018-05-13T03:02:25.019Z,16.67
2018-05-13T03:04:50.811Z,16.61
2018-05-13T03:07:16.579Z,16.59
2018-05-13T03:09:42.329Z,16.59
2018-05-13T03:12:08.105Z,16.57
2018-05-13T03:14:33.918Z,16.57
2018-05-13T03:16:59.667Z,16.56
2018-05-13T03:19:25.539Z,16.54
2018-05-13T03:21:51.291Z,16.56
2018-05-13T03:24:17.046Z,16.55
2018-05-13T03:26:42.816Z,16.57
2018-05-13T03:29:08.588Z,16.61
2018-05-13T03:31:34.339Z,16.66
2018-05-13T03:34:00.075Z,16.67
2018-05-13T03:36:25.864Z,16.65
2018-05-13T03:38:51.616Z,16.60
2018-05-13T03:41:17.353Z,16.66
2018-05-13T03:43:43.111Z,16.66
2018-05-13T03:46:08.863Z,16.66
2018-05-13T03:48:34.627Z,16.67
2018-05-13T03:51:00.389Z,16.69
2018-05-13T03:53:26.158Z,16.73
2018-05-13T03:55:51.978Z,16.73
2018-05-13T03:58:17.730Z,16.72
2018-05-13T04:00:43.491Z,16.74
2018-05-13T04:03:09.269Z,16.74
2018-05-13T04:05:35.016Z,16.72
2018-05-13T04:11:24.951Z,16.72
2018-05-13T04:14:03.164Z,16.77
2018-05-13T04:16:28.920Z,16.79
2018-05-13T04:18:54.732Z,16.83
2018-05-13T04:21:20.511Z,16.87
2018-05-13T04:23:46.276Z,16.90
2018-05-13T04:26:12.051Z,16.88
2018-05-13T04:28:37.829Z,16.92
2018-05-13T04:31:03.660Z,16.95
2018-05-13T04:33:29.419Z,16.95
2018-05-13T04:35:55.179Z,16.98
2018-05-13T04:38:21.024Z,17.00
2018-05-13T04:40:46.804Z,17.04
2018-05-13T04:43:12.572Z,17.07
2018-05-13T04:45:38.363Z,17.11
2018-05-13T04:48:04.165Z,17.14
2018-05-13T04:50:29.936Z,17.12
2018-05-13T04:52:55.779Z,17.17
2018-05-13T04:55:21.560Z,17.15
2018-05-13T04:57:47.374Z,17.22
2018-05-13T05:00:13.155Z,17.28
2018-05-13T05:02:38.928Z,17.33
2018-05-13T05:05:04.706Z,17.42
2018-05-13T05:07:30.498Z,17.49
2018-05-13T05:09:56.290Z,17.48
2018-05-13T05:12:22.048Z,17.51
2018-05-13T05:14:47.835Z,17.55
2018-05-13T05:17:13.607Z,17.55
2018-05-13T05:19:39.381Z,17.55
2018-05-13T05:22:05.138Z,17.60
2018-05-13T05:24:30.915Z,17.64
2018-05-13T05:29:28.526Z,17.71
2018-05-13T05:31:54.275Z,17.77
2018-05-13T05:34:20.028Z,17.82
2018-05-13T05:36:45.801Z,17.81
2018-05-13T05:39:11.559Z,17.79
2018-05-13T05:41:37.319Z,17.87
2018-05-13T05:44:03.063Z,17.92
2018-05-13T05:46:28.823Z,18.00
2018-05-13T05:48:54.587Z,18.00
2018-05-13T05:51:20.388Z,18.09
2018-05-13T05:53:46.135Z,18.14
2018-05-13T05:56:11.903Z,18.20
2018-05-13T05:58:37.652Z,18.27
2018-05-13T06:01:03.403Z,18.32
2018-05-13T06:03:29.182Z,18.40
2018-05-13T06:05:54.981Z,18.46
2018-05-13T06:08:20.730Z,18.47
2018-05-13T06:10:46.504Z,18.52
2018-05-13T06:13:12.260Z,18.59
2018-05-13T06:15:38.012Z,18.54
2018-05-13T06:18:03.773Z,18.59
2018-05-13T06:20:29.547Z,18.63
2018-05-13T06:22:55.332Z,18.73
2018-05-13T06:25:21.235Z,18.70
2018-05-13T06:27:46.932Z,18.81
2018-05-13T06:30:12.706Z,18.91
2018-05-13T06:32:38.605Z,18.97
2018-05-13T06:35:04.363Z,19.05
2018-05-13T06:37:30.130Z,19.14
2018-05-13T06:39:55.885Z,19.24
2018-05-13T06:42:21.621Z,19.30
2018-05-13T06:44:47.378Z,19.41
2018-05-13T06:47:13.136Z,19.49
2018-05-13T06:49:38.924Z,19.55
2018-05-13T06:52:04.662Z,19.61
2018-05-13T06:54:30.436Z,19.74
2018-05-13T06:56:56.594Z,19.82
2018-05-13T06:59:22.369Z,19.90
2018-05-13T07:01:48.127Z,19.98
2018-05-13T07:04:13.892Z,20.01
2018-05-13T07:06:39.631Z,20.10
2018-05-13T07:09:05.387Z,20.10
2018-05-13T07:11:31.164Z,20.12
2018-05-13T07:13:56.944Z,19.99
2018-05-13T07:16:22.705Z,19.99
2018-05-13T07:18:48.517Z,20.09
2018-05-13T07:21:14.291Z,20.12
2018-05-13T07:23:40.032Z,20.15
2018-05-13T07:26:05.794Z,20.18
2018-05-13T07:28:31.531Z,20.24
2018-05-13T07:30:57.287Z,20.37
2018-05-13T07:33:23.041Z,20.55
2018-05-13T07:38:43.588Z,20.70
2018-05-13T07:41:09.372Z,20.78
2018-05-13T07:43:35.241Z,20.86
2018-05-13T07:46:00.999Z,20.91
2018-05-13T07:48:26.859Z,20.91
2018-05-13T07:50:52.715Z,20.93
2018-05-13T07:53:18.401Z,20.97
2018-05-13T07:55:44.163Z,21.03
2018-05-13T07:58:09.927Z,21.06
2018-05-13T08:00:35.723Z,21.13
2018-05-13T08:03:01.489Z,21.25
2018-05-13T08:05:27.248Z,21.34
2018-05-13T08:07:53.003Z,21.47
2018-05-13T08:10:18.896Z,21.57
2018-05-13T08:12:44.644Z,21.61
2018-05-13T08:15:10.418Z,21.64
2018-05-13T08:17:36.168Z,21.62
2018-05-13T08:20:01.915Z,21.68
2018-05-13T08:22:27.723Z,21.77
2018-05-13T08:24:53.561Z,21.90
2018-05-13T08:27:19.721Z,22.01
2018-05-13T08:29:45.495Z,22.13
2018-05-13T08:32:11.303Z,22.19
2018-05-13T08:34:37.049Z,22.27
2018-05-13T08:37:02.855Z,22.39
2018-05-13T08:39:28.591Z,22.44
2018-05-13T08:41:54.423Z,22.58
2018-05-13T08:44:20.128Z,22.60
2018-05-13T08:46:45.903Z,22.60
2018-05-13T08:49:11.650Z,22.59
2018-05-13T08:51:37.439Z,22.65
2018-05-13T08:54:03.208Z,22.80
2018-05-13T08:56:28.982Z,22.86
2018-05-13T08:58:54.736Z,22.98
2018-05-13T09:01:20.539Z,23.07
2018-05-13T09:03:46.308Z,23.11
2018-05-13T09:06:12.132Z,23.22
2018-05-13T09:08:37.900Z,23.32
2018-05-13T09:11:03.663Z,23.29
2018-05-13T09:13:29.440Z,23.37
2018-05-13T09:15:55.229Z,23.49
2018-05-13T09:18:21.084Z,23.51
2018-05-13T09:20:46.847Z,23.57
2018-05-13T09:23:12.615Z,23.56
2018-05-13T09:25:38.374Z,23.67
2018-05-13T09:28:04.160Z,23.79
2018-05-13T09:30:29.921Z,23.91
2018-05-13T09:32:55.737Z,23.96
2018-05-13T09:35:21.476Z,24.07
2018-05-13T09:37:47.273Z,24.14
2018-05-13T09:40:13.007Z,24.13
2018-05-13T09:42:38.759Z,24.18
2018-05-13T09:45:04.519Z,24.18
2018-05-13T09:47:30.271Z,24.26
2018-05-13T09:49:56.081Z,24.35
2018-05-13T09:52:21.823Z,24.38
2018-05-13T09:54:47.598Z,24.48
2018-05-13T09:57:13.404Z,24.64
2018-05-13T09:59:39.156Z,24.77
2018-05-13T10:02:04.891Z,24.83
2018-05-13T10:04:30.646Z,24.93
2018-05-13T10:07:03.392Z,24.92
2018-05-13T10:09:29.178Z,25.05
2018-05-13T10:11:54.911Z,25.04
2018-05-13T10:14:20.676Z,25.15
2018-05-13T10:16:46.449Z,25.20
2018-05-13T10:19:12.204Z,25.31
2018-05-13T10:21:37.970Z,25.39
2018-05-13T10:24:03.791Z,25.47
2018-05-13T10:26:29.536Z,25.50
2018-05-13T10:28:55.381Z,25.65
2018-05-13T10:31:21.160Z,25.76
2018-05-13T10:33:46.925Z,25.82
2018-05-13T10:36:12.692Z,25.87
2018-05-13T10:38:38.462Z,25.90
2018-05-13T10:41:04.223Z,25.99
2018-05-13T10:43:29.984Z,26.05
2018-05-13T10:45:55.767Z,26.08
2018-05-13T10:48:21.552Z,26.09
2018-05-13T10:50:47.310Z,26.21
2018-05-13T10:53:13.092Z,26.24
2018-05-13T10:55:38.842Z,26.07
2018-05-13T10:58:04.605Z,26.07
2018-05-13T11:00:30.383Z,26.15
2018-05-13T11:02:56.240Z,26.19
2018-05-13T11:05:22.121Z,26.27
2018-05-13T11:07:47.855Z,26.27
2018-05-13T11:10:13.609Z,26.23
2018-05-13T11:12:39.386Z,26.37
2018-05-13T11:15:05.161Z,26.37
2018-05-13T11:17:30.919Z,26.42
2018-05-13T11:19:56.731Z,26.47
2018-05-13T11:22:22.503Z,26.34
2018-05-13T11:24:48.286Z,26.34
2018-05-13T11:27:14.083Z,26.44
2018-05-13T11:29:39.856Z,26.55
2018-05-13T11:32:05.652Z,26.67
2018-05-13T11:34:31.436Z,26.81
2018-05-13T11:36:57.219Z,26.93
2018-05-13T11:39:22.975Z,27.00
2018-05-13T11:41:48.788Z,27.16
2018-05-13T11:44:14.545Z,27.04
2018-05-13T11:46:40.356Z,27.04
2018-05-13T11:49:06.056Z,27.01
2018-05-13T11:51:31.799Z,27.09
2018-05-13T11:53:57.550Z,27.28
2018-05-13T11:56:23.334Z,27.50
2018-05-13T11:58:49.088Z,27.53
2018-05-13T12:01:21.947Z,27.59
2018-05-13T12:03:47.709Z,27.60
2018-05-13T12:06:13.511Z,27.56
2018-05-13T12:08:39.277Z,27.69
2018-05-13T12:11:05.052Z,27.77
2018-05-13T12:13:30.816Z,27.77
2018-05-13T12:15:56.580Z,27.86
2018-05-13T12:18:22.374Z,27.82
2018-05-13T12:20:48.123Z,27.79
2018-05-13T12:23:13.879Z,27.79
2018-05-13T12:25:54.599Z,27.93
2018-05-13T12:28:20.550Z,27.91
2018-05-13T12:30:46.307Z,28.10
2018-05-13T12:33:12.052Z,28.08
2018-05-13T12:35:37.816Z,28.19
2018-05-13T12:38:03.663Z,28.16
2018-05-13T12:40:29.347Z,28.11
2018-05-13T12:42:55.191Z,28.23
2018-05-13T12:45:20.935Z,28.29
2018-05-13T12:47:46.689Z,28.25
2018-05-13T12:50:12.535Z,28.35
2018-05-13T12:52:38.234Z,28.22
2018-05-13T12:55:04.000Z,27.94
2018-05-13T12:57:29.775Z,28.08
2018-05-13T12:59:55.522Z,28.04
2018-05-13T13:02:21.410Z,28.13
2018-05-13T13:04:47.145Z,28.27
2018-05-13T13:07:12.899Z,28.52
2018-05-13T13:09:38.666Z,28.44
2018-05-13T13:12:04.431Z,28.31
2018-05-13T13:14:30.206Z,28.12
2018-05-13T13:16:56.019Z,28.04
2018-05-13T13:19:21.826Z,27.85
2018-05-13T13:21:47.568Z,27.69
2018-05-13T13:24:13.391Z,27.51
2018-05-13T13:26:39.157Z,27.61
2018-05-13T13:29:04.913Z,27.87
2018-05-13T13:31:30.687Z,28.17
2018-05-13T13:33:56.451Z,28.38
2018-05-13T13:36:22.238Z,28.59
2018-05-13T13:38:48.020Z,28.81
2018-05-13T13:41:13.802Z,28.93
2018-05-13T13:43:39.601Z,28.90
2018-05-13T13:46:05.359Z,28.78
2018-05-13T13:48:31.091Z,28.54
2018-05-13T13:50:56.863Z,28.07
2018-05-13T13:53:22.809Z,27.87
2018-05-13T13:55:48.552Z,27.79
2018-05-13T13:58:14.306Z,27.70
2018-05-13T14:00:40.084Z,27.92
2018-05-13T14:03:05.859Z,28.07
2018-05-13T14:05:31.620Z,28.22
2018-05-13T14:07:57.410Z,28.07
2018-05-13T14:10:23.159Z,27.97
2018-05-13T14:12:48.982Z,27.99
2018-05-13T14:15:14.749Z,27.98
2018-05-13T14:17:40.515Z,27.85
2018-05-13T14:20:06.410Z,27.76
2018-05-13T14:22:32.067Z,27.82
2018-05-13T14:24:57.815Z,27.79
2018-05-13T14:27:23.607Z,27.78
2018-05-13T14:29:49.481Z,27.83
2018-05-13T14:32:15.236Z,27.93
2018-05-13T14:34:40.984Z,28.03
2018-05-13T14:37:06.743Z,28.06
2018-05-13T14:39:32.499Z,28.12
2018-05-13T14:41:58.238Z,28.18
2018-05-13T14:44:23.996Z,28.24
2018-05-13T14:46:49.827Z,28.35
2018-05-13T14:49:15.567Z,28.39
2018-05-13T14:51:41.346Z,28.47
2018-05-13T14:54:07.121Z,28.45
2018-05-13T14:56:32.887Z,28.46
2018-05-13T14:58:58.675Z,28.46
2018-05-13T15:01:24.443Z,28.41
2018-05-13T15:03:50.288Z,28.20
2018-05-13T15:06:16.052Z,28.03
2018-05-13T15:08:41.800Z,27.80
2018-05-13T15:11:07.539Z,27.82
2018-05-13T15:13:33.300Z,27.89
2018-05-13T15:15:59.060Z,27.88
2018-05-13T15:18:24.820Z,27.83
2018-05-13T15:20:50.583Z,27.70
2018-05-13T15:23:16.372Z,27.69
2018-05-13T15:25:42.123Z,27.61
2018-05-13T15:28:07.898Z,27.64
2018-05-13T15:30:33.655Z,27.57
2018-05-13T15:32:59.434Z,27.60
2018-05-13T15:35:25.196Z,27.53
2018-05-13T15:37:50.955Z,27.53
2018-05-13T15:40:16.727Z,27.50
2018-05-13T15:42:42.632Z,27.51
2018-05-13T15:45:08.263Z,27.52
2018-05-13T15:47:34.011Z,27.42
2018-05-13T15:49:59.775Z,27.46
2018-05-13T15:52:25.607Z,27.50
2018-05-13T15:54:51.422Z,27.59
2018-05-13T15:57:17.116Z,27.53
2018-05-13T15:59:42.872Z,27.52
2018-05-13T16:02:08.638Z,27.47
2018-05-13T16:04:34.407Z,27.39
2018-05-13T16:07:00.182Z,27.39
2018-05-13T16:09:25.955Z,27.42
2018-05-13T16:11:51.737Z,27.47
2018-05-13T16:14:17.495Z,27.49
2018-05-13T16:16:43.254Z,27.49
2018-05-13T16:19:09.132Z,27.43
2018-05-13T16:21:34.802Z,27.37
2018-05-13T16:24:00.535Z,27.27
2018-05-13T16:26:26.311Z,27.23
2018-05-13T16:28:52.182Z,27.23
2018-05-13T16:31:17.987Z,27.19
2018-05-13T16:33:43.789Z,27.18
2018-05-13T16:36:09.527Z,27.12
2018-05-13T16:38:35.328Z,27.11
2018-05-13T16:41:01.084Z,27.13
2018-05-13T16:43:26.831Z,27.10
2018-05-13T16:45:52.589Z,27.09
2018-05-13T16:48:18.371Z,27.00
2018-05-13T16:50:44.134Z,26.98
2018-05-13T16:53:09.901Z,26.93
2018-05-13T16:55:35.655Z,26.89
2018-05-13T16:58:01.411Z,26.83
2018-05-13T17:00:27.182Z,26.82
2018-05-13T17:02:52.963Z,26.76
2018-05-13T17:05:18.718Z,26.73
2018-05-13T17:07:44.471Z,26.69
2018-05-13T17:10:10.227Z,26.69
2018-05-13T17:12:35.983Z,26.69
2018-05-13T17:15:01.760Z,26.72
2018-05-13T17:17:27.520Z,26.71
2018-05-13T17:19:53.266Z,26.72
2018-05-13T17:22:19.035Z,26.64
2018-05-13T17:24:44.773Z,26.57
2018-05-13T17:27:10.528Z,26.55
2018-05-13T17:29:36.332Z,26.54
2018-05-13T17:32:02.098Z,26.46
2018-05-13T17:34:27.905Z,26.36
2018-05-13T17:36:53.815Z,26.30
2018-05-13T17:39:19.829Z,26.22
2018-05-13T17:41:45.523Z,26.21
2018-05-13T17:44:11.316Z,26.18
2018-05-13T17:46:37.064Z,26.17
2018-05-13T17:49:02.963Z,26.16
2018-05-13T17:51:28.838Z,26.21
2018-05-13T17:53:54.608Z,26.18
2018-05-13T17:56:23.488Z,26.15
2018-05-13T17:58:49.309Z,26.15
2018-05-13T18:01:15.083Z,25.99
2018-05-13T18:03:40.880Z,25.93
2018-05-13T18:06:06.664Z,25.83
2018-05-13T18:08:32.870Z,25.76
2018-05-13T18:10:58.639Z,25.69
2018-05-13T18:13:24.416Z,25.69
2018-05-13T18:15:50.620Z,25.63
2018-05-13T18:18:16.456Z,25.59
2018-05-13T18:20:42.204Z,25.56
2018-05-13T18:23:07.951Z,25.47
2018-05-13T18:25:33.724Z,25.39
2018-05-13T18:27:59.499Z,25.33
2018-05-13T18:30:25.294Z,25.28
2018-05-13T18:32:51.072Z,25.17
2018-05-13T18:35:16.824Z,25.06
2018-05-13T18:37:42.563Z,25.01
2018-05-13T18:40:08.326Z,24.90
2018-05-13T18:42:34.128Z,24.82
2018-05-13T18:44:59.999Z,24.70
2018-05-13T18:47:25.775Z,24.59
2018-05-13T18:49:51.531Z,24.54
2018-05-13T18:52:17.331Z,24.45
2018-05-13T18:54:43.076Z,24.41
2018-05-13T18:57:08.848Z,24.30
2018-05-13T18:59:34.628Z,24.24
2018-05-13T19:07:45.195Z,23.98
2018-05-13T19:10:10.977Z,23.89
2018-05-13T19:18:21.367Z,23.58
2018-05-13T19:20:47.144Z,23.47
2018-05-13T19:23:13.032Z,23.39
2018-05-13T19:25:38.808Z,23.33
2018-05-13T19:28:04.616Z,23.24
2018-05-13T19:30:30.420Z,23.19
2018-05-13T19:32:56.223Z,23.15
2018-05-13T19:35:22.015Z,23.08
2018-05-13T19:37:47.767Z,22.98
2018-05-13T19:40:13.580Z,22.92
2018-05-13T19:42:39.372Z,22.86
2018-05-13T19:45:05.191Z,22.81
2018-05-13T19:47:31.040Z,22.74
2018-05-13T19:49:56.863Z,22.68
2018-05-13T19:52:22.650Z,22.61
2018-05-13T19:54:48.394Z,22.52
2018-05-13T19:57:14.147Z,22.44
2018-05-13T19:59:39.920Z,22.41
2018-05-13T20:02:05.671Z,22.34
2018-05-13T20:04:31.458Z,22.30
2018-05-13T20:06:57.219Z,22.24
2018-05-13T20:09:22.994Z,22.19
2018-05-13T20:11:48.760Z,22.16
2018-05-13T20:14:14.540Z,22.10
2018-05-13T20:16:40.280Z,22.04
2018-05-13T20:19:06.049Z,21.97
2018-05-13T20:21:31.851Z,21.94
2018-05-13T20:23:57.668Z,21.87
2018-05-13T20:26:23.430Z,21.84
2018-05-13T20:28:49.244Z,21.80
2018-05-13T20:31:15.008Z,21.75
2018-05-13T20:33:40.812Z,21.70
2018-05-13T20:36:06.648Z,21.66
2018-05-13T20:38:32.447Z,21.63
2018-05-13T20:40:58.254Z,21.60
2018-05-13T20:43:24.123Z,21.57
2018-05-13T20:45:49.872Z,21.51
2018-05-13T20:48:15.691Z,21.46
2018-05-13T20:50:41.467Z,21.38
2018-05-13T20:53:07.220Z,21.34
2018-05-13T20:55:32.976Z,21.29
2018-05-13T20:57:58.752Z,21.26
2018-05-13T21:00:24.676Z,21.23
2018-05-13T21:02:50.483Z,21.19
2018-05-13T21:05:16.320Z,21.12
2018-05-13T21:07:42.015Z,21.05
2018-05-13T21:10:07.771Z,21.01
2018-05-13T21:12:33.528Z,20.97
2018-05-13T21:14:59.365Z,20.95
2018-05-13T21:17:25.404Z,20.88
2018-05-13T21:19:51.179Z,20.84
2018-05-13T21:22:16.935Z,20.79
2018-05-13T21:24:42.718Z,20.75
2018-05-13T21:27:08.463Z,20.71
2018-05-13T21:29:34.279Z,20.67
2018-05-13T21:32:00.044Z,20.62
2018-05-13T21:34:25.779Z,20.58
2018-05-13T21:36:51.566Z,20.52
2018-05-13T21:39:17.307Z,20.46
2018-05-13T21:41:43.051Z,20.43
2018-05-13T21:44:08.862Z,20.39
2018-05-13T21:46:34.603Z,20.35
2018-05-13T21:49:00.384Z,20.33
2018-05-13T21:51:26.156Z,20.31
2018-05-13T21:53:51.916Z,20.29
2018-05-13T21:56:17.707Z,20.26
2018-05-13T21:58:43.460Z,20.20
2018-05-13T22:01:09.230Z,20.15
2018-05-13T22:03:35.035Z,20.11
2018-05-13T22:06:00.791Z,20.06
2018-05-13T22:08:26.552Z,20.06
2018-05-13T22:10:52.524Z,20.02
2018-05-13T22:13:18.273Z,19.99
2018-05-13T22:15:44.088Z,19.96
2018-05-13T22:18:09.864Z,19.94
2018-05-13T22:20:35.609Z,19.90
2018-05-13T22:23:01.361Z,19.86
2018-05-13T22:25:27.133Z,19.83
2018-05-13T22:27:52.891Z,19.80
2018-05-13T22:30:18.649Z,19.77
2018-05-13T22:32:44.431Z,19.73
2018-05-13T22:35:10.175Z,19.70
2018-05-13T22:37:35.987Z,19.65
2018-05-13T22:40:01.772Z,19.59
2018-05-13T22:42:27.540Z,19.58
2018-05-13T22:44:53.487Z,19.56
2018-05-13T22:47:19.786Z,19.52
2018-05-13T22:49:45.496Z,19.48
2018-05-13T22:52:11.247Z,19.44
2018-05-13T22:54:37.012Z,19.41
2018-05-13T22:57:02.791Z,19.37
2018-05-13T22:59:28.664Z,19.32
2018-05-13T23:01:54.434Z,19.30
2018-05-13T23:04:20.280Z,19.27
2018-05-13T23:06:46.040Z,19.23
2018-05-13T23:09:11.826Z,19.19
2018-05-13T23:11:37.576Z,19.16
2018-05-13T23:14:03.316Z,19.13
2018-05-13T23:16:29.086Z,19.11
2018-05-13T23:18:54.896Z,19.07
2018-05-13T23:21:20.809Z,19.03
2018-05-13T23:23:46.568Z,19.00
2018-05-13T23:26:12.322Z,18.96
2018-05-13T23:28:38.103Z,18.92
2018-05-13T23:31:03.842Z,18.88
2018-05-13T23:33:29.603Z,18.83
2018-05-13T23:35:56.216Z,18.78
2018-05-13T23:38:21.992Z,18.74
2018-05-13T23:40:47.748Z,18.71
2018-05-13T23:43:13.520Z,18.67
2018-05-13T23:45:39.275Z,18.63
2018-05-13T23:48:05.020Z,18.61
2018-05-13T23:50:30.787Z,18.57
2018-05-13T23:52:56.542Z,18.54
2018-05-13T23:55:22.324Z,18.50
2018-05-13T23:57:48.091Z,18.46
